Time;durP1;ratioP1;P1;durP2;ratioP2;P2;SDS_P1;SDS_P2;PMS_P1;PMS_P2;Temp;Humidity;BMP_temperature;BMP_pressure;BME280_temperature;BME280_humidity;BME280_pressure;Samples;Min_cycle;Max_cycle;Signal;HPM_P1;HPM_P2
2023/01/03 00:00:44;;;;;;;13.02;5.57;;;;;;;;;;5121395;27;20453;-74
2023/01/03 00:03:15;;;;;;;12.67;6.17;;;;;;;;;;5134438;27;20522;-74
2023/01/03 00:05:45;;;;;;;12.30;6.45;;;;;;;;;;5115660;27;20420;-74
2023/01/03 00:08:12;;;;;;;12.93;7.25;;;;;;;;;;5085705;28;20424;-74
2023/01/03 00:10:38;;;;;;;12.38;5.30;;;;;;;;;;5111275;27;20737;-75
2023/01/03 00:13:04;;;;;;;9.60;5.20;;;;;;;;;;5100201;27;20497;-74
2023/01/03 00:15:30;;;;;;;11.20;5.38;;;;;;;;;;5129606;27;20414;-74
2023/01/03 00:17:56;;;;;;;10.85;6.40;;;;;;;;;;5114714;27;20413;-74
2023/01/03 00:20:22;;;;;;;19.27;6.18;;;;;;;;;;5096933;27;20443;-75
2023/01/03 00:22:48;;;;;;;16.35;6.80;;;;;;;;;;5101756;27;20410;-74
2023/01/03 00:25:14;;;;;;;15.20;6.65;;;;;;;;;;5092147;27;20834;-74
2023/01/03 00:27:40;;;;;;;14.10;7.18;;;;;;;;;;5115754;27;20399;-75
2023/01/03 00:30:07;;;;;;;14.48;7.18;;;;;;;;;;5113833;27;20762;-75
2023/01/03 00:32:33;;;;;;;13.57;6.00;;;;;;;;;;5114630;27;20423;-74
2023/01/03 00:34:59;;;;;;;15.77;5.93;;;;;;;;;;5116355;27;20427;-74
2023/01/03 00:37:25;;;;;;;15.13;6.03;;;;;;;;;;5133666;27;20398;-74
2023/01/03 00:39:51;;;;;;;13.10;5.70;;;;;;;;;;5110575;27;20410;-74
2023/01/03 00:42:17;;;;;;;11.23;5.60;;;;;;;;;;5102707;27;20418;-74
2023/01/03 00:44:43;;;;;;;9.25;5.43;;;;;;;;;;5108649;27;21047;-74
2023/01/03 00:47:09;;;;;;;9.63;5.10;;;;;;;;;;5100915;27;20420;-74
2023/01/03 00:49:35;;;;;;;13.75;6.10;;;;;;;;;;5098674;27;20403;-74
2023/01/03 00:52:01;;;;;;;12.95;5.55;;;;;;;;;;5107977;28;20424;-74
2023/01/03 00:54:27;;;;;;;10.37;4.90;;;;;;;;;;5122810;27;20410;-74
2023/01/03 00:56:53;;;;;;;12.30;4.70;;;;;;;;;;5110673;27;20423;-74
2023/01/03 00:59:20;;;;;;;12.32;5.30;;;;;;;;;;5117352;27;20427;-74
2023/01/03 01:01:51;;;;;;;10.48;4.63;;;;;;;;;;5096814;27;20420;-74
2023/01/03 01:04:19;;;;;;;13.88;4.47;;;;;;;;;;5122776;27;20423;-74
2023/01/03 01:06:50;;;;;;;11.98;4.63;;;;;;;;;;5114233;27;20454;-74
2023/01/03 01:09:27;;;;;;;15.35;4.75;;;;;;;;;;5103293;27;20418;-74
2023/01/03 01:11:53;;;;;;;11.25;4.50;;;;;;;;;;5110107;27;20440;-74
2023/01/03 01:14:20;;;;;;;9.50;4.30;;;;;;;;;;5117087;27;20404;-74
2023/01/03 01:16:54;;;;;;;11.00;3.90;;;;;;;;;;5111877;27;20431;-74
2023/01/03 01:19:21;;;;;;;9.23;3.88;;;;;;;;;;5119372;27;20468;-74
2023/01/03 01:21:47;;;;;;;9.82;3.60;;;;;;;;;;5098279;28;20450;-74
2023/01/03 01:24:14;;;;;;;11.98;4.18;;;;;;;;;;5105230;27;20418;-74
2023/01/03 01:26:40;;;;;;;16.25;4.47;;;;;;;;;;5115085;27;20398;-74
2023/01/03 01:29:06;;;;;;;11.20;4.50;;;;;;;;;;5106446;27;20475;-74
2023/01/03 01:31:33;;;;;;;9.70;5.38;;;;;;;;;;5110408;27;20418;-74
2023/01/03 01:33:59;;;;;;;10.63;4.40;;;;;;;;;;5110049;28;20412;-74
2023/01/03 01:36:29;;;;;;;11.68;3.85;;;;;;;;;;5120893;27;20419;-74
2023/01/03 01:39:05;;;;;;;10.80;4.10;;;;;;;;;;5099776;27;20498;-74
2023/01/03 01:44:39;;;;;;;10.00;4.90;;;;;;;;;;5113210;27;20922;-74
2023/01/03 01:47:25;;;;;;;10.90;5.03;;;;;;;;;;5094226;28;20408;-74
2023/01/03 01:49:54;;;;;;;13.10;5.30;;;;;;;;;;5062921;28;20423;-74
2023/01/03 01:52:20;;;;;;;9.85;5.20;;;;;;;;;;5094445;28;20416;-74
2023/01/03 01:54:47;;;;;;;12.05;5.50;;;;;;;;;;5094642;28;20496;-74
2023/01/03 01:57:16;;;;;;;13.95;6.68;;;;;;;;;;5077056;27;20424;-74
2023/01/03 01:59:42;;;;;;;10.70;5.25;;;;;;;;;;5093561;28;20469;-74
2023/01/03 02:02:09;;;;;;;14.37;7.97;;;;;;;;;;5078317;28;20566;-74
2023/01/03 02:04:36;;;;;;;12.23;6.30;;;;;;;;;;5108028;27;20414;-74
2023/01/03 02:07:02;;;;;;;11.45;5.47;;;;;;;;;;5129313;27;20419;-74
2023/01/03 02:09:32;;;;;;;13.27;5.80;;;;;;;;;;5117209;27;20422;-74
2023/01/03 02:15:23;;;;;;;9.73;4.70;;;3.80;99.90;;;;;;5108939;28;20414;-74
2023/01/03 02:17:49;;;;;;;10.30;4.80;;;;;;;;;;5091267;27;20426;-74
2023/01/03 02:20:21;;;;;;;11.60;5.13;;;;;;;;;;5094645;28;20412;-74
2023/01/03 02:23:02;;;;;;;11.07;4.95;;;;;;;;;;5083574;28;20422;-75
2023/01/03 02:25:34;;;;;;;11.45;4.82;;;;;;;;;;5077620;28;20499;-74
2023/01/03 02:28:19;;;;;;;11.50;4.45;;;;;;;;;;5110329;28;20476;-75
2023/01/03 02:31:02;;;;;;;9.30;4.57;;;;;;;;;;5112072;28;20768;-74
2023/01/03 02:33:43;;;;;;;14.05;4.57;;;;;;;;;;5099701;28;20421;-74
2023/01/03 02:36:32;;;;;;;13.35;4.88;;;;;;;;;;5081864;28;20971;-74
2023/01/03 02:39:01;;;;;;;11.35;4.70;;;;;;;;;;5127552;28;20497;-74
2023/01/03 02:41:36;;;;;;;11.82;5.15;;;;;;;;;;5095237;28;20930;-74
2023/01/03 02:44:06;;;;;;;9.38;4.82;;;;;;;;;;5098961;27;20406;-74
2023/01/03 02:46:34;;;;;;;9.93;4.82;;;;;;;;;;5101074;28;20414;-74
2023/01/03 02:49:26;;;;;;;15.40;5.00;;;;;;;;;;5129588;28;20422;-74
2023/01/03 02:51:54;;;;;;;10.93;4.70;;;;;;;;;;5079349;27;20449;-73
2023/01/03 02:54:41;;;;;;;10.32;4.63;;;;;;;;;;5102431;28;20415;-74
2023/01/03 02:57:10;;;;;;;10.02;4.40;;;;;;;;;;5103583;27;20487;-74
2023/01/03 02:59:43;;;;;;;15.73;5.00;;;;;;;;;;5105348;27;20418;-74
2023/01/03 03:02:10;;;;;;;11.40;4.70;;;;;;;;;;5088013;27;20470;-75
2023/01/03 03:04:37;;;;;;;10.32;4.57;;;;;;;;;;5126092;27;20414;-75
2023/01/03 03:07:18;;;;;;;11.23;4.45;;;;;;;;;;5130727;27;20417;-75
2023/01/03 03:15:25;;;;;;;13.13;5.43;;;;;;;;;;5113977;27;20433;-74
2023/01/03 03:17:53;;;;;;;15.93;5.05;;;;;;;;;;5106682;27;20444;-74
2023/01/03 03:26:00;;;;;;;11.52;5.40;;;;;;;;;;5096913;28;20434;-75
2023/01/03 03:28:34;;;;;;;10.45;5.40;;;;;;;;;;5102284;27;20419;-75
2023/01/03 03:31:07;;;;;;;14.40;5.80;;;;;;;;;;5094840;28;20771;-75
2023/01/03 03:33:34;;;;;;;15.32;5.85;;;;;;;;;;5096749;28;20457;-75
2023/01/03 03:36:06;;;;;;;13.10;6.07;;;;;;;;;;5080928;27;20744;-75
2023/01/03 03:38:38;;;;;;;13.73;6.45;;;;;;;;;;5128382;27;20800;-75
2023/01/03 03:47:23;;;;;;;16.08;7.38;;;;;;;;;;5096448;28;20452;-75
2023/01/03 03:49:50;;;;;;;17.17;7.53;;;;;;;;;;5113290;27;20459;-75
2023/01/03 03:52:19;;;;;;;17.77;8.27;;;;;;;;;;5112380;27;20418;-75
2023/01/03 03:54:49;;;;;;;16.55;8.15;;;;;;;;;;5116207;27;20913;-75
2023/01/03 03:57:21;;;;;;;16.33;8.30;;;;;;;;;;5096403;28;20491;-75
2023/01/03 03:59:50;;;;;;;18.93;8.83;;;;;;;;;;5079501;28;20400;-75
2023/01/03 04:02:16;;;;;;;23.55;9.73;;;;;;;;;;5096434;28;20419;-75
2023/01/03 04:04:46;;;;;;;20.35;9.60;;;;;;;;;;5113665;27;20467;-75
2023/01/03 04:07:12;;;;;;;21.63;9.63;;;;;;;;;;5080678;28;20427;-75
2023/01/03 04:09:38;;;;;;;21.10;9.77;;;;;;;;;;5095686;27;20538;-75
2023/01/03 04:12:04;;;;;;;22.13;10.20;;;;;;;;;;5114333;27;20410;-75
2023/01/03 04:14:30;;;;;;;23.40;10.93;;;;;;;;;;5115271;27;20406;-75
2023/01/03 04:16:56;;;;;;;20.92;10.80;;;;;;;;;;5104222;27;20416;-75
2023/01/03 04:19:22;;;;;;;21.98;10.77;;;;;;;;;;5110968;27;20422;-75
2023/01/03 04:21:48;;;;;;;24.03;11.90;;;;;;;;;;5117236;27;20448;-75
2023/01/03 04:24:14;;;;;;;27.60;14.93;;;;;;;;;;5110580;27;20442;-77
2023/01/03 04:26:40;;;;;;;25.13;12.85;;;;;;;;;;5087794;28;20416;-77
2023/01/03 04:29:06;;;;;;;25.77;12.95;;;;;;;;;;5097295;27;20410;-77
2023/01/03 04:31:33;;;;;;;25.00;13.05;;;;;;;;;;5123169;27;20490;-77
2023/01/03 04:33:59;;;;;;;29.17;14.13;;;;;;;;;;5131161;27;20436;-77
2023/01/03 04:36:25;;;;;;;26.95;13.98;;;;;;;;;;5097815;27;20473;-77
2023/01/03 04:38:51;;;;;;;29.63;13.87;;;;;;;;;;5098128;28;20429;-77
2023/01/03 04:41:17;;;;;;;28.38;14.70;;;;;;;;;;5101053;27;20444;-77
2023/01/03 04:44:01;;;;;;;26.27;14.07;;;;;;;;;;5126640;27;20410;-77
2023/01/03 04:46:28;;;;;;;29.50;15.02;;;;;;;;;;5105989;27;20895;-77
2023/01/03 04:48:55;;;;;;;32.47;15.45;;;;;;;;;;5131798;27;20411;-77
2023/01/03 04:51:21;;;;;;;34.13;16.05;;;;;;;;;;5117667;27;20410;-77
2023/01/03 04:53:47;;;;;;;27.23;14.90;;;;;;;;;;5126895;27;20411;-78
2023/01/03 04:56:13;;;;;;;28.70;15.65;;;;;;;;;;5120430;27;20424;-78
2023/01/03 04:58:39;;;;;;;27.05;15.15;;;;;;;;;;5078584;28;20760;-78
2023/01/03 05:01:09;;;;;;;32.03;15.52;;;;;;;;;;5109392;27;20494;-78
2023/01/03 05:03:36;;;;;;;27.63;15.52;;;;;;;;;;5095814;28;20745;-78
2023/01/03 05:06:07;;;;;;;30.95;16.48;;;;;;;;;;5104926;27;20438;-78
2023/01/03 05:08:33;;;;;;;31.98;16.95;;;;;;;;;;5122923;27;20417;-78
2023/01/03 05:10:59;;;;;;;33.13;16.77;;;;;;;;;;5128992;27;20415;-78
2023/01/03 05:13:25;;;;;;;32.22;17.33;;;;;;;;;;5129717;27;20418;-78
2023/01/03 05:15:51;;;;;;;33.15;16.67;;;;;;;;;;5114452;27;20934;-77
2023/01/03 05:18:18;;;;;;;31.33;15.88;;;;;;;;;;5125069;27;20450;-77
2023/01/03 05:26:15;;;;;;;30.17;16.58;;;;;;;;;;5108896;27;20926;-78
2023/01/03 05:28:43;;;;;;;40.00;20.23;;;;;;;;;;5096992;27;20918;-78
2023/01/03 05:31:09;;;;;;;34.22;18.23;;;;;;;;;;5110437;27;20416;-78
2023/01/03 05:33:37;;;;;;;31.80;16.33;;;;;;;;;;5127336;27;20917;-77
2023/01/03 05:36:04;;;;;;;32.83;17.33;;;;;;;;;;5113259;27;20411;-76
2023/01/03 05:38:30;;;;;;;29.60;16.58;;;;;;;;;;5123594;27;20404;-76
2023/01/03 05:40:56;;;;;;;29.45;17.02;;;;;;;;;;5106249;27;20409;-77
2023/01/03 05:43:22;;;;;;;34.03;18.27;;;;;;;;;;5101224;27;20955;-77
2023/01/03 05:45:50;;;;;;;34.25;18.75;;;;;;;;;;5108991;27;20818;-77
2023/01/03 05:48:16;;;;;;;35.00;18.58;;;;;;;;;;5124174;27;20423;-77
2023/01/03 05:50:42;;;;;;;37.22;18.90;;;;;;;;;;5110350;28;20416;-77
2023/01/03 05:53:08;;;;;;;38.65;20.02;;;;;;;;;;5096776;27;20623;-77
2023/01/03 05:55:38;;;;;;;36.67;19.85;;;;;;;;;;5111321;27;20541;-77
2023/01/03 05:58:04;;;;;;;41.00;21.73;;;;;;;;;;5123258;27;20415;-77
2023/01/03 06:00:31;;;;;;;43.72;22.85;;;;;;;;;;5120586;27;20532;-77
2023/01/03 06:02:57;;;;;;;45.55;23.48;;;;;;;;;;5111737;27;20442;-77
2023/01/03 06:05:23;;;;;;;55.38;25.70;;;;;;;;;;5116639;27;20422;-77
2023/01/03 06:07:49;;;;;;;47.47;24.77;;;;;;;;;;5110816;28;20916;-77
2023/01/03 06:10:15;;;;;;;46.87;25.93;;;;;;;;;;5107047;27;20420;-74
2023/01/03 06:12:41;;;;;;;50.58;26.77;;;;;;;;;;5077010;28;20427;-74
2023/01/03 06:15:07;;;;;;;53.45;26.70;;;;;;;;;;5095949;27;20761;-74
2023/01/03 06:20:18;;;;;;;160.52;35.83;;;;;;;;;;5094448;27;20477;-73
2023/01/03 06:22:44;;;;;;;58.92;28.95;;;;;;;;;;5110917;28;20420;-74
2023/01/03 06:25:11;;;;;;;79.00;31.15;;;;;;;;;;5094122;28;20734;-73
2023/01/03 06:27:37;;;;;;;57.35;28.20;;;;;;;;;;5099222;28;20422;-73
2023/01/03 06:30:04;;;;;;;137.80;35.08;;;;;;;;;;5093574;28;20631;-73
2023/01/03 06:32:30;;;;;;;138.05;35.95;;;;;;;;;;5103944;27;20418;-73
2023/01/03 06:34:56;;;;;;;54.05;27.88;;;;;;;;;;5130635;27;20909;-74
2023/01/03 06:37:22;;;;;;;109.03;32.42;;;;;;;;;;5119369;27;20945;-74
2023/01/03 06:39:48;;;;;;;93.22;31.85;;;;;;;;;;5096605;28;20541;-74
2023/01/03 06:53:18;;;;;;;53.47;26.73;;;;;;;;;;5118068;27;20795;-74
2023/01/03 06:55:45;;;;;;;50.85;26.38;;;;;;;;;;5120939;27;20484;-74
2023/01/03 06:58:11;;;;;;;46.10;25.13;;;;;;;;;;5103873;27;20433;-74
2023/01/03 07:00:38;;;;;;;88.38;31.50;;;;;;;;;;5113048;27;20419;-73
2023/01/03 07:03:04;;;;;;;51.90;26.75;;;;;;;;;;5115727;27;20486;-73
2023/01/03 07:05:30;;;;;;;42.17;24.73;;;;;;;;;;5110022;27;20422;-72
2023/01/03 07:07:56;;;;;;;45.88;24.20;;;;;;;;;;5096859;27;20973;-73
2023/01/03 07:10:23;;;;;;;41.22;24.33;;;;;;;;;;5132590;27;20445;-72
2023/01/03 07:15:34;;;;;;;38.45;22.50;;;;;;;;;;5112885;27;20483;-74
2023/01/03 07:18:01;;;;;;;40.92;21.67;;;;;;;;;;5124285;27;20414;-74
2023/01/03 07:20:27;;;;;;;34.33;20.70;;;;;;;;;;5134570;27;20402;-74
2023/01/03 07:22:53;;;;;;;47.57;23.43;;;;;;;;;;5130030;27;20549;-74
2023/01/03 07:25:19;;;;;;;35.45;19.65;;;;;;;;;;5109398;28;20749;-74
2023/01/03 07:27:54;;;;;;;33.58;19.17;;;;;;;;;;5095078;27;20425;-74
2023/01/03 07:30:20;;;;;;;32.55;19.42;;;;;;;;;;5105786;27;20473;-74
2023/01/03 07:32:46;;;;;;;37.67;20.58;;;;;;;;;;5124968;27;20436;-75
2023/01/03 07:35:12;;;;;;;32.63;19.00;;;;;;;;;;5114728;27;20463;-75
2023/01/03 07:37:38;;;;;;;35.72;19.73;;;;;;;;;;5113515;27;20493;-75
2023/01/03 07:40:05;;;;;;;34.13;19.00;;;;;;;;;;5088595;27;20507;-75
2023/01/03 07:45:15;;;;;;;33.28;20.10;;;;;;;;;;5111481;27;20646;-75
2023/01/03 07:47:45;;;;;;;39.33;21.15;;;;;;;;;;5116408;27;20929;-75
2023/01/03 07:50:11;;;;;;;40.88;21.58;;;;;;;;;;5101357;27;20422;-75
2023/01/03 07:52:37;;;;;;;37.67;21.27;;;;;;;;;;5133952;27;20419;-75
2023/01/03 07:55:03;;;;;;;38.92;21.65;;;;;;;;;;5109180;27;20445;-75
2023/01/03 07:57:29;;;;;;;39.78;21.27;;;;;;;;;;5103772;27;20463;-76
2023/01/03 07:59:55;;;;;;;37.05;21.52;;;;;;;;;;5110756;27;20765;-75
2023/01/03 08:02:21;;;;;;;40.05;22.35;;;;;;;;;;5116894;27;20398;-75
2023/01/03 08:04:48;;;;;;;42.53;23.23;;;;;;;;;;5092796;27;20499;-75
2023/01/03 08:07:14;;;;;;;40.83;23.65;;;;;;;;;;5098383;27;20414;-76
2023/01/03 08:15:09;;;;;;;46.67;25.52;;;;;;;;;;5118179;27;20422;-75
2023/01/03 08:17:35;;;;;;;50.03;27.05;;;;;;;;;;5114578;27;20403;-75
2023/01/03 08:20:01;;;;;;;47.65;27.30;;;;;;;;;;5111084;27;20523;-75
2023/01/03 08:22:28;;;;;;;49.58;28.90;;;;;;;;;;5078057;28;20420;-74
2023/01/03 08:24:54;;;;;;;51.85;29.15;;;;;;;;;;5107806;27;20418;-75
2023/01/03 08:27:20;;;;;;;183.98;42.63;;;;;;;;;;5098328;27;20433;-75
2023/01/03 08:29:46;;;;;;;54.33;29.67;;;;;;;;;;5098817;27;20498;-75
2023/01/03 08:32:13;;;;;;;97.63;33.13;;;;;;;;;;5120376;27;20930;-75
2023/01/03 08:34:43;;;;;;;118.68;34.63;;;;;;;;;;5124134;27;20415;-75
2023/01/03 08:37:10;;;;;;;271.40;42.88;;;;;;;;;;5108399;27;20501;-75
2023/01/03 08:39:38;;;;;;;392.58;51.53;;;;;;;;;;5115786;27;20415;-74
2023/01/03 08:42:06;;;;;;;196.32;39.65;;;;;;;;;;5118437;27;20884;-78
2023/01/03 08:44:32;;;;;;;136.23;40.23;;;;;;;;;;5092428;27;20422;-75
2023/01/03 08:46:59;;;;;;;133.73;42.40;;;;;;;;;;5094460;27;20429;-75
2023/01/03 08:49:25;;;;;;;185.02;45.17;;;;;;;;;;5112865;27;20430;-75
2023/01/03 08:51:52;;;;;;;195.27;42.97;;;;;;;;;;5095115;27;20909;-75
2023/01/03 08:54:18;;;;;;;163.63;39.78;;;;;;;;;;5079500;27;20433;-75
2023/01/03 08:56:46;;;;;;;233.95;40.33;;;;;;;;;;5122831;27;20451;-75
2023/01/03 08:59:12;;;;;;;214.10;41.58;;;;;;;;;;5099510;27;20410;-75
2023/01/03 09:01:39;;;;;;;278.70;42.13;;;;;;;;;;5100630;27;20926;-75
2023/01/03 09:04:05;;;;;;;250.48;42.80;;;;;;;;;;5106346;27;20772;-77
2023/01/03 09:06:31;;;;;;;305.45;48.63;;;;;;;;;;5094753;27;20410;-75
2023/01/03 09:08:57;;;;;;;826.95;86.28;;;;;;;;;;5101999;27;20414;-76
2023/01/03 09:11:24;;;;;;;456.92;60.28;;;;;;;;;;5095983;27;20423;-76
2023/01/03 09:13:50;;;;;;;499.65;59.47;;;;;;;;;;5101772;27;20418;-76
2023/01/03 09:16:16;;;;;;;555.30;64.90;;;;;;;;;;5101868;28;20976;-76
2023/01/03 09:18:42;;;;;;;582.83;70.03;;;;;;;;;;5091907;27;20511;-77
2023/01/03 09:21:08;;;;;;;1002.88;106.43;;;;;;;;;;5121209;27;20422;-77
2023/01/03 09:23:35;;;;;;;521.47;62.60;;;;;;;;;;5105135;27;20960;-77
2023/01/03 09:26:01;;;;;;;539.63;64.68;;;;;;;;;;5121563;27;20459;-76
2023/01/03 09:28:27;;;;;;;605.60;74.85;;;;;;;;;;5108178;27;20461;-77
2023/01/03 09:30:53;;;;;;;644.20;73.18;;;;;;;;;;5116773;27;20454;-77
2023/01/03 09:33:19;;;;;;;654.08;73.22;;;;;;;;;;5113293;27;20460;-77
2023/01/03 09:35:46;;;;;;;614.53;75.95;;;;;;;;;;5112069;27;20479;-77
2023/01/03 09:38:12;;;;;;;637.85;80.05;;;;;;;;;;5118861;27;20420;-77
2023/01/03 09:40:39;;;;;;;670.65;79.60;;;;;;;;;;5113245;27;20493;-76
2023/01/03 09:43:11;;;;;;;723.47;83.68;;;;;;;;;;5107911;27;20418;-77
2023/01/03 09:45:38;;;;;;;692.55;82.30;;;;;;;;;;5116949;27;20418;-77
2023/01/03 09:48:05;;;;;;;638.50;79.07;;;;;;;;;;5101685;27;20470;-77
2023/01/03 09:50:33;;;;;;;780.30;90.85;;;;;;;;;;5097210;27;20910;-77
2023/01/03 10:04:38;;;;;;;687.87;92.17;;;;;;;;;;5127923;27;20864;-76
2023/01/03 10:07:04;;;;;;;844.35;109.22;;;;;;;;;;5093224;28;20456;-76
2023/01/03 10:09:37;;;;;;;598.17;82.40;;;;;;;;;;5100243;27;20493;-76
2023/01/03 10:12:19;;;;;;;571.90;82.97;;;;;;;;;;5089697;28;21059;-76
2023/01/03 10:14:45;;;;;;;654.03;92.93;;;;;;;;;;5093081;28;20423;-76
2023/01/03 10:17:17;;;;;;;598.15;87.22;;;;;;;;;;5094271;27;20417;-77
2023/01/03 10:19:43;;;;;;;578.63;85.50;;;;;;;;;;5097131;28;20426;-76
2023/01/03 10:22:29;;;;;;;576.77;87.90;;;;;;;;;;5105919;27;20548;-76
2023/01/03 10:24:55;;;;;;;569.03;88.45;;;;;;;;;;5079602;28;20465;-76
2023/01/03 10:27:24;;;;;;;453.17;78.97;;;;;;;;;;5090353;28;20416;-75
2023/01/03 10:29:51;;;;;;;513.85;85.22;;;;;;;;;;5099738;28;20410;-76
2023/01/03 10:32:27;;;;;;;621.35;96.50;;;;;;;;;;5102316;28;20449;-76
2023/01/03 10:35:15;;;;;;;462.08;82.28;;;;;;;;;;5112021;28;20417;-76
2023/01/03 10:37:41;;;;;;;390.48;76.50;;;;;;;;;;5114517;28;20922;-76
2023/01/03 10:40:07;;;;;;;449.70;82.50;;;;;;;;;;5113658;28;20889;-76
2023/01/03 10:42:34;;;;;;;542.28;88.00;;;;;;;;;;5093749;28;20499;-76
2023/01/03 10:45:02;;;;;;;306.85;72.43;;;;;;;;;;5102888;28;20418;-76
2023/01/03 10:47:28;;;;;;;295.20;67.83;;;;;;;;;;5103960;28;20424;-76
2023/01/03 10:50:01;;;;;;;297.63;68.30;;;;;;;;;;5095736;28;20804;-76
2023/01/03 10:52:53;;;;;;;747.53;110.38;;;;;;;;;;5099663;28;20438;-76
2023/01/03 10:55:22;;;;;;;276.30;68.35;;;;;;;;;;5118847;27;20426;-76
2023/01/03 10:57:51;;;;;;;266.02;65.55;;;;;;;;;;5087204;28;20425;-76
2023/01/03 11:00:20;;;;;;;248.13;65.85;;;;;;;;;;5110130;28;20408;-76
2023/01/03 11:02:47;;;;;;;241.85;66.18;;;;;;;;;;5115638;28;20506;-76
2023/01/03 11:05:21;;;;;;;255.73;68.57;;;;;;;;;;5110075;28;20396;-77
2023/01/03 11:07:55;;;;;;;216.05;62.53;;;;;;;;;;5110295;27;20457;-75
2023/01/03 11:10:21;;;;;;;218.90;60.92;;;;;;;;;;5111156;28;20422;-75
2023/01/03 11:12:47;;;;;;;203.75;60.85;;;;;;;;;;5112176;28;20489;-76
2023/01/03 11:15:13;;;;;;;193.20;60.40;;;;;;;;;;5114910;28;20942;-75
2023/01/03 11:17:51;;;;;;;180.90;60.03;;;;;;;;;;5079387;27;20979;-76
2023/01/03 11:20:18;;;;;;;390.25;73.40;;;;;;;;;;5114193;27;20502;-76
2023/01/03 11:22:47;;;;;;;154.52;55.40;;;;;;;;;;5111421;27;20430;-75
2023/01/03 11:25:19;;;;;;;150.60;54.03;;;;;;;;;;5113297;27;20425;-74
2023/01/03 11:28:04;;;;;;;147.30;51.45;;;;;;;;;;5113063;27;20422;-75
2023/01/03 11:30:36;;;;;;;142.55;51.55;;;;;;;;;;5089593;27;20428;-76
2023/01/03 11:33:18;;;;;;;147.23;52.17;;;;;;;;;;5111497;27;20808;-75
2023/01/03 11:35:44;;;;;;;304.88;64.30;;;;;;;;;;5105865;27;20421;-75
2023/01/03 11:38:29;;;;;;;140.40;51.78;;;;;;;;;;5097400;27;20425;-75
2023/01/03 11:40:58;;;;;;;143.07;52.67;;;;;;;;;;5094827;28;20411;-76
2023/01/03 11:43:36;;;;;;;132.13;50.67;;;;;;;;;;5109615;27;20970;-76
2023/01/03 11:46:40;;;;;;;130.98;49.78;;;5.90;99.90;;;;;;5112270;27;20419;-77
2023/01/03 11:49:33;;;;;;;129.32;48.55;;;;;;;;;;5097970;27;20418;-76
2023/01/03 11:52:14;;;;;;;131.60;49.67;;;;;;;;;;5074186;27;20437;-76
2023/01/03 11:54:46;;;;;;;130.15;50.58;;;;;;;;;;5114431;27;20762;-76
2023/01/03 11:57:22;;;;;;;157.60;51.15;;;;;;;;;;5106003;27;20471;-76
2023/01/03 11:59:48;;;;;;;130.18;49.20;;;;;;;;;;5102509;27;20766;-76
2023/01/03 12:02:17;;;;;;;134.38;48.47;;;;;;;;;;5106005;27;20936;-77
2023/01/03 12:04:46;;;;;;;145.73;49.42;;;;;;;;;;5095815;27;20476;-77
2023/01/03 12:07:29;;;;;;;123.55;48.00;;;;;;;;;;5100576;28;20407;-76
2023/01/03 12:10:14;;;;;;;141.85;50.13;;;;;;;;;;5109409;27;20421;-76
2023/01/03 12:12:59;;;;;;;127.72;46.65;;;;;;;;;;5113194;27;20418;-76
2023/01/03 12:15:29;;;;;;;175.80;50.55;;;;;;;;;;5099159;27;20411;-77
2023/01/03 12:17:58;;;;;;;121.68;46.20;;;;;;;;;;5100649;27;20419;-76
2023/01/03 12:20:34;;;;;;;122.07;46.00;;;;;;;;;;5103313;27;20463;-76
2023/01/03 12:23:02;;;;;;;114.10;44.20;;;;;;;;;;5082009;27;20464;-75
2023/01/03 12:25:39;;;;;;;113.22;42.78;;;;;;;;;;5104123;27;20980;-75
2023/01/03 12:28:18;;;;;;;95.05;41.58;;;;;;;;;;5111903;27;20487;-76
2023/01/03 12:30:58;;;;;;;108.88;41.78;;;;;;;;;;5114363;27;20414;-76
2023/01/03 12:33:31;;;;;;;99.22;39.38;;;;;;;;;;5086131;27;20782;-75
2023/01/03 12:36:23;;;;;;;92.63;38.08;;;;;;;;;;5089986;27;20414;-75
2023/01/03 12:39:01;;;;;;;79.65;37.90;;;;;;;;;;5103898;27;20678;-76
2023/01/03 12:41:41;;;;;;;78.80;35.27;;;;;;;;;;5111007;27;20944;-77
2023/01/03 12:44:12;;;;;;;91.65;38.05;;;;;;;;;;5108013;27;20960;-75
2023/01/03 12:46:42;;;;;;;104.88;36.75;;;;;;;;;;5114275;27;20487;-76
2023/01/03 12:49:21;;;;;;;76.88;34.03;;;;;;;;;;5099969;27;20427;-76
2023/01/03 12:51:47;;;;;;;75.60;33.72;;;;;;;;;;5094307;27;20428;-76
2023/01/03 12:54:13;;;;;;;67.65;31.38;;;;;;;;;;5116733;27;20528;-76
2023/01/03 12:56:39;;;;;;;70.38;31.02;;;;;;;;;;5101964;27;20462;-75
2023/01/03 12:59:24;;;;;;;122.22;34.92;;;;;;;;;;5088354;27;20431;-76
2023/01/03 13:01:55;;;;;;;67.85;30.13;;;;;;;;;;5120521;27;20493;-76
2023/01/03 13:04:23;;;;;;;63.95;29.00;;;;;;;;;;5129289;27;20493;-76
2023/01/03 13:06:52;;;;;;;60.80;27.98;;;;;;;;;;5106520;27;20477;-76
2023/01/03 13:09:30;;;;;;;52.50;26.10;;;;;;;;;;5107536;27;20414;-76
2023/01/03 13:12:00;;;;;;;54.33;27.47;;;;;;;;;;5087049;27;20812;-81
2023/01/03 13:14:27;;;;;;;51.95;25.20;;;;;;;;;;5101502;27;20797;-80
2023/01/03 13:16:55;;;;;;;50.38;25.95;;;;;;;;;;5106520;27;20410;-80
2023/01/03 13:19:23;;;;;;;52.92;26.67;;;;;;;;;;5092099;27;20424;-80
2023/01/03 13:21:52;;;;;;;53.70;26.87;;;;;;;;;;5098920;27;20435;-81
2023/01/03 13:24:37;;;;;;;48.55;26.15;;;;;;;;;;5106874;27;20423;-81
2023/01/03 13:27:30;;;;;;;101.22;30.25;;;;;;;;;;5108005;27;20474;-81
2023/01/03 13:29:57;;;;;;;47.55;25.25;;;;;;;;;;5105401;27;20419;-82
2023/01/03 13:32:23;;;;;;;48.10;24.55;;;;;;;;;;5099198;27;20444;-83
2023/01/03 13:34:58;;;;;;;46.05;24.10;;;;;;;;;;5097326;27;20406;-81
2023/01/03 13:37:24;;;;;;;48.42;24.35;;;;;;;;;;5102411;27;20413;-82
2023/01/03 13:39:50;;;;;;;45.28;24.13;;;;;;;;;;5109329;27;20419;-75
2023/01/03 13:42:21;;;;;;;105.00;28.20;;;;;;;;;;5109633;27;20447;-75
2023/01/03 13:44:47;;;;;;;46.47;23.95;;;;;;;;;;5122866;27;20422;-76
2023/01/03 13:47:33;;;;;;;44.67;24.23;;;;;;;;;;5106195;27;20414;-76
2023/01/03 13:49:59;;;;;;;46.33;23.88;;;;;;;;;;5111804;27;20923;-76
2023/01/03 13:52:36;;;;;;;44.08;23.25;;;;;;;;;;5091630;27;20427;-76
2023/01/03 13:55:03;;;;;;;42.47;21.65;;;;;;;;;;5080707;27;21113;-76
2023/01/03 13:57:30;;;;;;;49.97;23.75;;;;;;;;;;5090770;28;20434;-76
2023/01/03 13:59:58;;;;;;;73.90;24.15;;;;;;;;;;5088317;27;20421;-76
2023/01/03 14:02:44;;;;;;;41.42;20.27;;;;;;;;;;5115450;27;20495;-75
2023/01/03 14:05:22;;;;;;;42.70;22.27;;;;;;;;;;5046309;27;20418;-76
2023/01/03 14:07:57;;;;;;;45.22;22.88;;;;;;;;;;5107495;28;20408;-76
2023/01/03 14:10:43;;;;;;;42.28;21.90;;;;;;;;;;5106737;27;20415;-77
2023/01/03 14:13:18;;;;;;;43.70;22.25;;;;;;;;;;5085012;28;20424;-76
2023/01/03 14:15:44;;;;;;;40.67;22.02;;;;;;;;;;5111483;27;20404;-76
2023/01/03 14:18:14;;;;;;;44.40;22.02;;;;;;;;;;5088773;27;20419;-77
2023/01/03 14:20:46;;;;;;;46.33;22.87;;;7.10;99.90;;;;;;5110646;27;20446;-81
2023/01/03 14:23:13;;;;;;;43.78;22.67;;;;;;;;;;5092967;28;20419;-81
2023/01/03 14:25:41;;;;;;;44.80;23.77;;;;;;;;;;5090092;27;20421;-80
2023/01/03 14:28:39;;;;;;;41.03;22.92;;;;;;;;;;5093582;28;20500;-79
2023/01/03 14:31:07;;;;;;;42.53;22.75;;;;;;;;;;5056650;28;20423;-80
2023/01/03 14:33:39;;;;;;;43.23;23.00;;;;;;;;;;5107639;28;20930;-81
2023/01/03 14:36:08;;;;;;;42.67;23.30;;;;;;;;;;5107947;28;20923;-81
2023/01/03 14:38:35;;;;;;;50.70;25.02;;;;;;;;;;5102540;28;20483;-81
2023/01/03 14:41:01;;;;;;;42.50;22.17;;;;;;;;;;5102345;28;20419;-81
2023/01/03 14:43:32;;;;;;;41.95;22.85;;;;;;;;;;5109189;27;20417;-80
2023/01/03 14:46:03;;;;;;;42.53;22.15;;;;;;;;;;5120819;28;20419;-81
2023/01/03 14:48:29;;;;;;;41.47;22.10;;;;;;;;;;5081607;28;20477;-80
2023/01/03 14:50:55;;;;;;;42.30;22.10;;;;;;;;;;5112794;28;20457;-80
2023/01/03 14:53:22;;;;;;;40.42;22.35;;;;;;;;;;5119730;27;20418;-80
2023/01/03 14:55:52;;;;;;;43.60;22.38;;;;;;;;;;5088280;27;21391;-81
2023/01/03 14:58:38;;;;;;;40.53;21.15;;;7.50;99.90;;;;;;5112040;27;20425;-80
2023/01/03 15:01:09;;;;;;;40.45;20.80;;;;;;;;;;5115677;27;20614;-80
2023/01/03 15:03:37;;;;;;;37.70;20.30;;;;;;;;;;5113986;27;20419;-80
2023/01/03 15:06:15;;;;;;;34.63;20.23;;;;;;;;;;5113243;27;20441;-80
2023/01/03 15:08:42;;;;;;;34.42;21.05;;;;;;;;;;5095456;27;20418;-80
2023/01/03 15:11:09;;;;;;;37.70;20.33;;;;;;;;;;5105672;27;20414;-81
2023/01/03 15:13:35;;;;;;;33.50;19.90;;;;;;;;;;5117148;27;20510;-80
2023/01/03 15:16:03;;;;;;;37.38;20.17;;;;;;;;;;5091866;28;20423;-80
2023/01/03 15:18:31;;;;;;;36.47;20.88;;;;;;;;;;5118105;27;20407;-81
2023/01/03 15:20:58;;;;;;;34.33;19.83;;;;;;;;;;5107632;27;20418;-80
2023/01/03 15:23:28;;;;;;;33.90;20.63;;;;;;;;;;5105765;27;20822;-81
2023/01/03 15:25:54;;;;;;;33.40;20.23;;;;;;;;;;5115046;27;20422;-80
2023/01/03 15:28:31;;;;;;;30.90;20.23;;;;;;;;;;5107596;27;20509;-81
2023/01/03 15:31:13;;;;;;;32.33;19.88;;;7.50;99.90;;;;;;5119566;27;20464;-81
2023/01/03 15:33:40;;;;;;;37.60;20.25;;;;;;;;;;5083540;27;20416;-79
2023/01/03 15:36:07;;;;;;;36.80;22.77;;;;;;;;;;5126272;27;20388;-80